createdAt,value
2024-02-13T00:00:41.783Z,425.00
2024-02-13T00:01:41.896Z,426.00
2024-02-13T00:02:42.112Z,428.00
2024-02-13T00:03:41.996Z,428.00
2024-02-13T00:04:42.062Z,430.00
2024-02-13T00:05:42.079Z,431.00
2024-02-13T00:06:42.141Z,430.00
2024-02-13T00:07:42.194Z,432.00
2024-02-13T00:08:45.742Z,432.00
2024-02-13T00:09:42.277Z,431.00
2024-02-13T00:10:42.253Z,430.00
2024-02-13T00:11:42.316Z,430.00
2024-02-13T00:12:42.299Z,429.00
2024-02-13T00:13:42.271Z,429.00
2024-02-13T00:14:43.703Z,428.00
2024-02-13T00:15:42.283Z,425.00
2024-02-13T00:16:42.223Z,422.00
2024-02-13T00:17:42.450Z,424.00
2024-02-13T00:18:42.313Z,423.00
2024-02-13T00:19:42.357Z,422.00
2024-02-13T00:20:42.285Z,421.00
2024-02-13T00:21:42.264Z,419.00
2024-02-13T00:22:42.286Z,419.00
2024-02-13T00:23:42.355Z,419.00
2024-02-13T00:24:42.276Z,417.00
2024-02-13T00:25:42.285Z,417.00
2024-02-13T00:26:42.319Z,417.00
2024-02-13T00:27:42.266Z,418.00
2024-02-13T00:28:42.318Z,420.00
2024-02-13T00:29:42.375Z,423.00
2024-02-13T00:30:42.284Z,424.00
2024-02-13T00:31:42.285Z,422.00
2024-02-13T00:32:42.379Z,422.00
2024-02-13T00:33:42.462Z,422.00
2024-02-13T00:34:42.465Z,423.00
2024-02-13T00:35:42.388Z,421.00
2024-02-13T00:36:42.319Z,423.00
2024-02-13T00:37:42.269Z,423.00
2024-02-13T00:38:42.320Z,424.00
2024-02-13T00:39:42.287Z,423.00
2024-02-13T00:40:42.295Z,424.00
2024-02-13T00:41:42.306Z,422.00
2024-02-13T00:42:42.292Z,422.00
2024-02-13T00:43:42.352Z,421.00
2024-02-13T00:44:42.354Z,422.00
2024-02-13T00:45:42.324Z,420.00
2024-02-13T00:46:42.335Z,419.00
2024-02-13T00:47:42.671Z,419.00
2024-02-13T00:48:42.538Z,419.00
2024-02-13T00:49:42.395Z,419.00
2024-02-13T00:50:42.433Z,419.00
2024-02-13T00:51:42.471Z,417.00
2024-02-13T00:52:42.516Z,417.00
2024-02-13T00:53:42.684Z,418.00
2024-02-13T00:54:42.704Z,417.00
2024-02-13T00:55:42.742Z,418.00
2024-02-13T00:56:42.924Z,418.00
2024-02-13T00:57:42.916Z,417.00
2024-02-13T00:58:43.015Z,417.00
2024-02-13T00:59:43.085Z,418.00
2024-02-13T01:00:43.103Z,420.00
2024-02-13T01:01:43.209Z,419.00
2024-02-13T01:02:43.340Z,416.00
2024-02-13T01:03:43.461Z,415.00
2024-02-13T01:04:43.381Z,417.00
2024-02-13T01:05:43.471Z,418.00
2024-02-13T01:06:43.521Z,417.00
2024-02-13T01:07:43.547Z,417.00
2024-02-13T01:08:43.703Z,419.00
2024-02-13T01:09:43.729Z,421.00
2024-02-13T01:10:43.803Z,422.00
2024-02-13T01:11:43.909Z,423.00
2024-02-13T01:12:43.940Z,424.00
2024-02-13T01:13:44.015Z,424.00
2024-02-13T01:14:44.146Z,423.00
2024-02-13T01:15:44.121Z,424.00
2024-02-13T01:16:44.212Z,423.00
2024-02-13T01:17:44.356Z,423.00
2024-02-13T01:18:44.439Z,422.00
2024-02-13T01:19:44.455Z,424.00
2024-02-13T01:20:44.534Z,425.00
2024-02-13T01:21:44.568Z,423.00
2024-02-13T01:22:44.587Z,422.00
2024-02-13T01:23:44.732Z,422.00
2024-02-13T01:24:44.744Z,422.00
2024-02-13T01:25:44.797Z,422.00
2024-02-13T01:26:44.937Z,420.00
2024-02-13T01:27:44.971Z,421.00
2024-02-13T01:28:45.013Z,421.00
2024-02-13T01:29:45.238Z,422.00
2024-02-13T01:30:45.202Z,422.00
2024-02-13T01:31:45.247Z,422.00
2024-02-13T01:32:45.344Z,420.00
2024-02-13T01:33:45.580Z,419.00
2024-02-13T01:34:45.583Z,418.00
2024-02-13T01:35:45.502Z,417.00
2024-02-13T01:36:45.585Z,417.00
2024-02-13T01:37:45.671Z,416.00
2024-02-13T01:38:45.750Z,416.00
2024-02-13T01:39:45.808Z,417.00
2024-02-13T01:40:45.852Z,417.00
2024-02-13T01:41:45.958Z,418.00
2024-02-13T01:42:45.998Z,419.00
2024-02-13T01:43:46.073Z,419.00
2024-02-13T01:44:46.246Z,421.00
2024-02-13T01:45:46.196Z,418.00
2024-02-13T01:46:46.285Z,416.00
2024-02-13T01:47:46.598Z,415.00
2024-02-13T01:48:46.570Z,415.00
2024-02-13T01:49:46.497Z,415.00
2024-02-13T01:50:46.600Z,417.00
2024-02-13T01:51:46.627Z,417.00
2024-02-13T01:52:46.720Z,418.00
2024-02-13T01:53:46.813Z,417.00
2024-02-13T01:54:46.845Z,417.00
2024-02-13T01:55:46.903Z,416.00
2024-02-13T01:56:47.029Z,413.00
2024-02-13T01:57:47.015Z,414.00
2024-02-13T01:58:47.100Z,413.00
2024-02-13T01:59:47.227Z,413.00
2024-02-13T02:00:47.338Z,413.00
2024-02-13T02:01:47.329Z,414.00
2024-02-13T02:02:47.453Z,415.00
2024-02-13T02:03:47.456Z,418.00
2024-02-13T02:04:47.555Z,421.00
2024-02-13T02:05:47.737Z,420.00
2024-02-13T02:06:47.702Z,420.00
2024-02-13T02:07:47.736Z,420.00
2024-02-13T02:08:47.889Z,422.00
2024-02-13T02:09:47.895Z,420.00
2024-02-13T02:10:47.972Z,419.00
2024-02-13T02:11:48.135Z,415.00
2024-02-13T02:12:48.080Z,417.00
2024-02-13T02:13:48.156Z,418.00
2024-02-13T02:14:48.349Z,418.00
2024-02-13T02:15:48.313Z,419.00
2024-02-13T02:16:48.359Z,418.00
2024-02-13T02:17:48.564Z,417.00
2024-02-13T02:18:48.644Z,418.00
2024-02-13T02:19:48.592Z,421.00
2024-02-13T02:20:51.296Z,420.00
2024-02-13T02:21:48.634Z,418.00
2024-02-13T02:22:48.773Z,418.00
2024-02-13T02:23:48.735Z,415.00
2024-02-13T02:24:48.828Z,415.00
2024-02-13T02:25:48.728Z,413.00
2024-02-13T02:26:48.711Z,414.00
2024-02-13T02:27:48.710Z,416.00
2024-02-13T02:28:48.781Z,416.00
2024-02-13T02:29:48.861Z,416.00
2024-02-13T02:30:48.773Z,416.00
2024-02-13T02:31:48.728Z,417.00
2024-02-13T02:32:49.086Z,417.00
2024-02-13T02:33:48.821Z,417.00
2024-02-13T02:34:48.789Z,418.00
2024-02-13T02:35:48.690Z,418.00
2024-02-13T02:36:48.809Z,419.00
2024-02-13T02:37:48.754Z,419.00
2024-02-13T02:38:48.809Z,419.00
2024-02-13T02:39:48.809Z,419.00
2024-02-13T02:40:48.661Z,418.00
2024-02-13T02:41:48.702Z,418.00
2024-02-13T02:42:48.677Z,419.00
2024-02-13T02:43:48.789Z,421.00
2024-02-13T02:44:48.899Z,422.00
2024-02-13T02:45:48.835Z,423.00
2024-02-13T02:46:48.655Z,422.00
2024-02-13T02:47:48.774Z,423.00
2024-02-13T02:48:48.753Z,423.00
2024-02-13T02:49:48.880Z,425.00
2024-02-13T02:50:48.873Z,425.00
2024-02-13T02:51:48.730Z,427.00
2024-02-13T02:52:48.743Z,425.00
2024-02-13T02:53:48.783Z,423.00
2024-02-13T02:54:48.742Z,425.00
2024-02-13T02:55:48.876Z,424.00
2024-02-13T02:56:48.891Z,425.00
2024-02-13T02:57:48.814Z,424.00
2024-02-13T02:58:48.899Z,424.00
2024-02-13T02:59:49.087Z,422.00
2024-02-13T03:00:49.070Z,422.00
2024-02-13T03:01:49.082Z,422.00
2024-02-13T03:02:49.368Z,421.00
2024-02-13T03:03:49.255Z,419.00
2024-02-13T03:04:49.325Z,417.00
2024-02-13T03:05:49.455Z,418.00
2024-02-13T03:06:49.552Z,418.00
2024-02-13T03:07:49.517Z,418.00
2024-02-13T03:08:49.545Z,420.00
2024-02-13T03:09:49.624Z,420.00
2024-02-13T03:10:49.647Z,419.00
2024-02-13T03:11:49.751Z,418.00
2024-02-13T03:12:49.792Z,418.00
2024-02-13T03:13:49.896Z,419.00
2024-02-13T03:14:50.107Z,421.00
2024-02-13T03:15:49.978Z,420.00
2024-02-13T03:16:50.028Z,419.00
2024-02-13T03:17:50.087Z,420.00
2024-02-13T03:18:50.199Z,421.00
2024-02-13T03:19:50.169Z,421.00
2024-02-13T03:20:50.180Z,422.00
2024-02-13T03:21:50.840Z,422.00
2024-02-13T03:22:50.241Z,421.00
2024-02-13T03:23:50.388Z,422.00
2024-02-13T03:24:50.378Z,423.00
2024-02-13T03:25:50.443Z,421.00
2024-02-13T03:26:50.480Z,420.00
2024-02-13T03:27:50.484Z,422.00
2024-02-13T03:28:50.601Z,424.00
2024-02-13T03:29:50.736Z,425.00
2024-02-13T03:30:50.644Z,424.00
2024-02-13T03:31:50.689Z,425.00
2024-02-13T03:32:50.885Z,425.00
2024-02-13T03:33:50.852Z,426.00
2024-02-13T03:34:50.846Z,426.00
2024-02-13T03:35:50.881Z,427.00
2024-02-13T03:36:50.958Z,427.00
2024-02-13T03:37:50.978Z,426.00
2024-02-13T03:38:51.162Z,425.00
2024-02-13T03:39:51.114Z,425.00
2024-02-13T03:40:51.151Z,424.00
2024-02-13T03:41:51.250Z,423.00
2024-02-13T03:42:51.270Z,424.00
2024-02-13T03:43:51.355Z,422.00
2024-02-13T03:44:51.485Z,422.00
2024-02-13T03:45:51.485Z,420.00
2024-02-13T03:46:51.509Z,420.00
2024-02-13T03:47:51.632Z,422.00
2024-02-13T03:48:51.641Z,423.00
2024-02-13T03:49:51.696Z,424.00
2024-02-13T03:50:51.745Z,426.00
2024-02-13T03:51:51.773Z,426.00
2024-02-13T03:52:51.830Z,425.00
2024-02-13T03:53:51.898Z,424.00
2024-02-13T03:54:51.908Z,423.00
2024-02-13T03:55:51.980Z,423.00
2024-02-13T03:56:52.045Z,425.00
2024-02-13T03:57:52.123Z,423.00
2024-02-13T03:58:52.112Z,422.00
2024-02-13T03:59:52.226Z,422.00
2024-02-13T04:00:52.273Z,423.00
2024-02-13T04:01:52.298Z,423.00
2024-02-13T04:02:52.553Z,424.00
2024-02-13T04:03:52.463Z,424.00
2024-02-13T04:04:52.487Z,425.00
2024-02-13T04:05:52.636Z,426.00
2024-02-13T04:06:52.606Z,426.00
2024-02-13T04:07:52.626Z,426.00
2024-02-13T04:08:52.718Z,427.00
2024-02-13T04:09:52.751Z,427.00
2024-02-13T04:10:52.817Z,426.00
2024-02-13T04:11:52.938Z,426.00
2024-02-13T04:12:52.907Z,425.00
2024-02-13T04:13:52.974Z,425.00
2024-02-13T04:14:53.106Z,427.00
2024-02-13T04:15:55.772Z,426.00
2024-02-13T04:16:53.107Z,426.00
2024-02-13T04:17:53.166Z,426.00
2024-02-13T04:18:53.153Z,425.00
2024-02-13T04:19:53.124Z,426.00
2024-02-13T04:20:53.139Z,425.00
2024-02-13T04:21:53.096Z,425.00
2024-02-13T04:22:53.105Z,423.00
2024-02-13T04:23:53.222Z,423.00
2024-02-13T04:24:53.132Z,423.00
2024-02-13T04:25:53.105Z,421.00
2024-02-13T04:26:53.144Z,419.00
2024-02-13T04:27:53.110Z,418.00
2024-02-13T04:28:53.127Z,419.00
2024-02-13T04:29:53.173Z,421.00
2024-02-13T04:31:00.370Z,429.00
2024-02-13T04:32:07.701Z,432.00
2024-02-13T04:33:07.733Z,429.00
2024-02-13T04:34:08.130Z,430.00
2024-02-13T04:35:07.677Z,432.00
2024-02-13T04:36:07.610Z,428.00
2024-02-13T04:37:07.610Z,429.00
2024-02-13T04:38:07.612Z,431.00
2024-02-13T04:39:07.628Z,433.00
2024-02-13T04:40:07.642Z,432.00
2024-02-13T04:41:07.609Z,431.00
2024-02-13T04:42:07.660Z,431.00
2024-02-13T04:43:08.283Z,431.00
2024-02-13T04:44:07.616Z,428.00
2024-02-13T04:45:07.746Z,428.00
2024-02-13T04:46:07.604Z,427.00
2024-02-13T04:47:07.628Z,425.00
2024-02-13T04:48:07.730Z,424.00
2024-02-13T04:49:07.934Z,423.00
2024-02-13T04:50:07.647Z,421.00
2024-02-13T04:51:07.643Z,419.00
2024-02-13T04:52:07.620Z,421.00
2024-02-13T04:53:07.638Z,421.00
2024-02-13T04:54:07.640Z,423.00
2024-02-13T04:55:07.627Z,422.00
2024-02-13T04:56:07.635Z,423.00
2024-02-13T04:57:07.684Z,423.00
2024-02-13T04:58:07.669Z,422.00
2024-02-13T04:59:07.682Z,423.00
2024-02-13T05:00:07.663Z,423.00
2024-02-13T05:01:07.627Z,425.00
2024-02-13T05:02:07.660Z,422.00
2024-02-13T05:03:07.666Z,423.00
2024-02-13T05:04:07.661Z,425.00
2024-02-13T05:05:07.682Z,425.00
2024-02-13T05:06:07.773Z,424.00
2024-02-13T05:07:07.637Z,424.00
2024-02-13T05:08:07.707Z,424.00
2024-02-13T05:09:07.655Z,425.00
2024-02-13T05:10:07.688Z,427.00
2024-02-13T05:11:07.642Z,427.00
2024-02-13T05:12:07.657Z,428.00
2024-02-13T05:13:07.674Z,428.00
2024-02-13T05:14:07.648Z,428.00
2024-02-13T05:15:07.718Z,426.00
2024-02-13T05:16:07.686Z,424.00
2024-02-13T05:17:07.685Z,423.00
2024-02-13T05:18:07.863Z,422.00
2024-02-13T05:19:07.932Z,422.00
2024-02-13T05:20:07.812Z,423.00
2024-02-13T05:21:07.833Z,423.00
2024-02-13T05:22:07.885Z,423.00
2024-02-13T05:23:07.909Z,425.00
2024-02-13T05:24:07.953Z,424.00
2024-02-13T05:25:08.015Z,426.00
2024-02-13T05:26:07.987Z,427.00
2024-02-13T05:27:08.008Z,428.00
2024-02-13T05:28:08.067Z,429.00
2024-02-13T05:29:08.101Z,426.00
2024-02-13T05:30:08.148Z,426.00
2024-02-13T05:31:08.155Z,425.00
2024-02-13T05:32:08.214Z,429.00
2024-02-13T05:33:08.352Z,429.00
2024-02-13T05:34:08.531Z,428.00
2024-02-13T05:35:08.356Z,431.00
2024-02-13T05:36:08.395Z,430.00
2024-02-13T05:37:08.439Z,430.00
2024-02-13T05:38:08.458Z,430.00
2024-02-13T05:39:08.520Z,430.00
2024-02-13T05:40:08.567Z,431.00
2024-02-13T05:41:08.570Z,432.00
2024-02-13T05:42:08.586Z,434.00
2024-02-13T05:43:08.628Z,434.00
2024-02-13T05:44:08.649Z,435.00
2024-02-13T05:45:08.671Z,435.00
2024-02-13T05:46:08.722Z,435.00
2024-02-13T05:47:08.729Z,435.00
2024-02-13T05:48:08.858Z,434.00
2024-02-13T05:49:08.895Z,431.00
2024-02-13T05:50:08.909Z,432.00
2024-02-13T05:51:08.813Z,432.00
2024-02-13T05:52:08.861Z,434.00
2024-02-13T05:53:08.870Z,435.00
2024-02-13T05:54:08.929Z,434.00
2024-02-13T05:55:08.949Z,431.00
2024-02-13T05:56:08.968Z,433.00
2024-02-13T05:57:09.046Z,435.00
2024-02-13T05:58:09.045Z,435.00
2024-02-13T05:59:09.009Z,434.00
2024-02-13T06:00:10.953Z,435.00
2024-02-13T06:01:09.228Z,434.00
2024-02-13T06:02:09.133Z,435.00
2024-02-13T06:03:09.225Z,435.00
2024-02-13T06:04:09.244Z,436.00
2024-02-13T06:05:09.240Z,438.00
2024-02-13T06:06:09.288Z,437.00
2024-02-13T06:07:09.295Z,434.00
2024-02-13T06:08:09.257Z,435.00
2024-02-13T06:09:09.287Z,437.00
2024-02-13T06:10:09.327Z,437.00
2024-02-13T06:11:09.354Z,436.00
2024-02-13T06:12:09.400Z,437.00
2024-02-13T06:13:09.363Z,437.00
2024-02-13T06:14:09.352Z,435.00
2024-02-13T06:15:09.391Z,434.00
2024-02-13T06:16:09.397Z,434.00
2024-02-13T06:17:09.432Z,434.00
2024-02-13T06:18:09.575Z,435.00
2024-02-13T06:19:09.487Z,435.00
2024-02-13T06:20:09.673Z,434.00
2024-02-13T06:21:09.496Z,432.00
2024-02-13T06:22:09.492Z,429.00
2024-02-13T06:23:09.543Z,429.00
2024-02-13T06:24:09.570Z,429.00
2024-02-13T06:25:09.612Z,429.00
2024-02-13T06:26:09.560Z,430.00
2024-02-13T06:27:09.669Z,434.00
2024-02-13T06:28:09.628Z,435.00
2024-02-13T06:29:09.664Z,435.00
2024-02-13T06:30:09.677Z,436.00
2024-02-13T06:31:09.703Z,436.00
2024-02-13T06:32:09.683Z,436.00
2024-02-13T06:33:09.999Z,434.00
2024-02-13T06:34:09.787Z,431.00
2024-02-13T06:35:09.770Z,431.00
2024-02-13T06:36:09.734Z,432.00
2024-02-13T06:37:09.764Z,432.00
2024-02-13T06:38:09.766Z,431.00
2024-02-13T06:39:09.804Z,429.00
2024-02-13T06:40:09.797Z,430.00
2024-02-13T06:41:09.834Z,431.00
2024-02-13T06:42:09.896Z,431.00
2024-02-13T06:43:09.861Z,432.00
2024-02-13T06:44:09.857Z,433.00
2024-02-13T06:45:10.342Z,433.00
2024-02-13T06:46:09.911Z,435.00
2024-02-13T06:47:09.976Z,435.00
2024-02-13T06:48:09.979Z,436.00
2024-02-13T06:49:09.992Z,436.00
2024-02-13T06:50:10.010Z,434.00
2024-02-13T06:51:09.970Z,433.00
2024-02-13T06:52:09.978Z,435.00
2024-02-13T06:53:10.015Z,435.00
2024-02-13T06:54:10.026Z,438.00
2024-02-13T06:55:10.085Z,435.00
2024-02-13T06:56:10.068Z,436.00
2024-02-13T06:57:10.086Z,435.00
2024-02-13T06:58:10.116Z,433.00
2024-02-13T06:59:10.141Z,435.00
2024-02-13T07:00:10.239Z,437.00
2024-02-13T07:01:10.409Z,436.00
2024-02-13T07:02:10.211Z,436.00
2024-02-13T07:03:10.223Z,437.00
2024-02-13T07:04:10.318Z,437.00
2024-02-13T07:05:10.455Z,436.00
2024-02-13T07:06:10.408Z,436.00
2024-02-13T07:07:25.343Z,436.00
2024-02-13T07:08:11.323Z,436.00
2024-02-13T07:09:10.472Z,436.00
2024-02-13T07:10:10.391Z,435.00
2024-02-13T07:11:10.285Z,434.00
2024-02-13T07:12:10.268Z,433.00
2024-02-13T07:13:10.276Z,432.00
2024-02-13T07:14:10.273Z,434.00
2024-02-13T07:15:10.630Z,435.00
2024-02-13T07:16:10.266Z,436.00
2024-02-13T07:17:10.305Z,435.00
2024-02-13T07:18:10.372Z,435.00
2024-02-13T07:19:10.500Z,431.00
2024-02-13T07:20:10.313Z,431.00
2024-02-13T07:21:10.314Z,431.00
2024-02-13T07:22:10.298Z,432.00
2024-02-13T07:23:10.357Z,432.00
2024-02-13T07:24:10.350Z,430.00
2024-02-13T07:25:10.322Z,429.00
2024-02-13T07:26:10.332Z,426.00
2024-02-13T07:27:10.284Z,426.00
2024-02-13T07:28:10.317Z,423.00
2024-02-13T07:29:10.311Z,424.00
2024-02-13T07:30:10.332Z,421.00
2024-02-13T07:31:10.301Z,425.00
2024-02-13T07:32:13.109Z,428.00
2024-02-13T07:33:10.455Z,430.00
2024-02-13T07:34:10.562Z,433.00
2024-02-13T07:35:10.306Z,432.00
2024-02-13T07:36:10.369Z,432.00
2024-02-13T07:37:10.334Z,432.00
2024-02-13T07:38:10.307Z,432.00
2024-02-13T07:39:10.367Z,430.00
2024-02-13T07:40:10.329Z,429.00
2024-02-13T07:41:10.395Z,430.00
2024-02-13T07:42:10.310Z,429.00
2024-02-13T07:43:10.306Z,429.00
2024-02-13T07:44:10.341Z,431.00
2024-02-13T07:45:10.352Z,431.00
2024-02-13T07:46:10.319Z,431.00
2024-02-13T07:47:10.330Z,429.00
2024-02-13T07:48:10.372Z,430.00
2024-02-13T07:49:10.425Z,430.00
2024-02-13T07:50:10.341Z,428.00
2024-02-13T07:51:10.348Z,428.00
2024-02-13T07:52:10.332Z,428.00
2024-02-13T07:53:10.365Z,427.00
2024-02-13T07:54:10.314Z,428.00
2024-02-13T07:55:11.905Z,428.00
2024-02-13T07:56:10.329Z,425.00
2024-02-13T07:57:10.342Z,426.00
2024-02-13T07:58:10.340Z,427.00
2024-02-13T07:59:10.339Z,426.00
2024-02-13T08:00:10.343Z,426.00
2024-02-13T08:01:10.372Z,428.00
2024-02-13T08:02:10.370Z,427.00
2024-02-13T08:03:10.380Z,426.00
2024-02-13T08:04:10.387Z,426.00
2024-02-13T08:05:10.381Z,426.00
2024-02-13T08:06:10.410Z,428.00
2024-02-13T08:07:10.643Z,428.00
2024-02-13T08:08:10.427Z,429.00
2024-02-13T08:09:10.338Z,430.00
2024-02-13T08:10:10.396Z,432.00
2024-02-13T08:11:10.363Z,433.00
2024-02-13T08:12:10.339Z,434.00
2024-02-13T08:13:10.441Z,435.00
2024-02-13T08:14:10.336Z,432.00
2024-02-13T08:15:10.385Z,431.00
2024-02-13T08:16:10.367Z,432.00
2024-02-13T08:17:10.358Z,428.00
2024-02-13T08:18:10.471Z,428.00
2024-02-13T08:19:10.427Z,428.00
2024-02-13T08:20:10.628Z,428.00
2024-02-13T08:21:10.426Z,429.00
2024-02-13T08:22:10.371Z,428.00
2024-02-13T08:23:10.359Z,428.00
2024-02-13T08:24:10.416Z,429.00
2024-02-13T08:25:10.432Z,427.00
2024-02-13T08:26:10.391Z,426.00
2024-02-13T08:27:10.391Z,427.00
2024-02-13T08:28:10.402Z,424.00
2024-02-13T08:29:10.397Z,424.00
2024-02-13T08:30:10.541Z,424.00
2024-02-13T08:31:10.387Z,421.00
2024-02-13T08:32:10.425Z,422.00
2024-02-13T08:33:10.575Z,422.00
2024-02-13T08:34:10.707Z,423.00
2024-02-13T08:35:10.445Z,422.00
2024-02-13T08:36:10.467Z,421.00
2024-02-13T08:37:10.425Z,420.00
2024-02-13T08:38:10.413Z,420.00
2024-02-13T08:39:10.418Z,419.00
2024-02-13T08:40:10.431Z,419.00
2024-02-13T08:41:10.427Z,421.00
2024-02-13T08:42:10.402Z,421.00
2024-02-13T08:43:10.414Z,421.00
2024-02-13T08:44:10.426Z,421.00
2024-02-13T08:45:10.414Z,422.00
2024-02-13T08:46:10.403Z,422.00
2024-02-13T08:47:10.411Z,422.00
2024-02-13T08:48:10.551Z,423.00
2024-02-13T08:49:10.592Z,424.00
2024-02-13T08:50:10.578Z,423.00
2024-02-13T08:51:10.503Z,422.00
2024-02-13T08:52:10.442Z,423.00
2024-02-13T08:53:10.419Z,422.00
2024-02-13T08:54:10.420Z,424.00
2024-02-13T08:55:10.412Z,425.00
2024-02-13T08:56:10.422Z,426.00
2024-02-13T08:57:10.429Z,428.00
2024-02-13T08:58:10.397Z,428.00
2024-02-13T08:59:10.462Z,428.00
2024-02-13T09:00:10.546Z,429.00
2024-02-13T09:01:10.497Z,428.00
2024-02-13T09:02:10.461Z,428.00
2024-02-13T09:03:10.517Z,427.00
2024-02-13T09:04:10.667Z,425.00
2024-02-13T09:05:10.868Z,426.00
2024-02-13T09:06:10.866Z,427.00
2024-02-13T09:07:10.808Z,426.00
2024-02-13T09:08:10.871Z,424.00
2024-02-13T09:09:10.949Z,424.00
2024-02-13T09:10:10.965Z,426.00
2024-02-13T09:11:11.033Z,425.00
2024-02-13T09:12:11.131Z,425.00
2024-02-13T09:13:11.244Z,426.00
2024-02-13T09:14:11.256Z,425.00
2024-02-13T09:15:11.379Z,424.00
2024-02-13T09:16:13.335Z,424.00
2024-02-13T09:17:11.453Z,424.00
2024-02-13T09:18:11.555Z,424.00
2024-02-13T09:19:11.616Z,425.00
2024-02-13T09:20:11.410Z,426.00
2024-02-13T09:21:11.809Z,425.00
2024-02-13T09:22:11.414Z,423.00
2024-02-13T09:23:11.450Z,425.00
2024-02-13T09:24:11.429Z,425.00
2024-02-13T09:25:11.437Z,426.00
2024-02-13T09:26:11.408Z,427.00
2024-02-13T09:27:11.416Z,428.00
2024-02-13T09:28:11.463Z,428.00
2024-02-13T09:29:11.430Z,427.00
2024-02-13T09:30:11.891Z,427.00
2024-02-13T09:31:11.487Z,427.00
2024-02-13T09:32:11.455Z,425.00
2024-02-13T09:33:11.615Z,428.00
2024-02-13T09:34:11.617Z,429.00
2024-02-13T09:35:11.457Z,429.00
2024-02-13T09:36:11.463Z,429.00
2024-02-13T09:37:11.477Z,428.00
2024-02-13T09:38:11.488Z,430.00
2024-02-13T09:39:11.482Z,431.00
2024-02-13T09:40:11.428Z,433.00
2024-02-13T09:41:11.465Z,432.00
2024-02-13T09:42:11.463Z,432.00
2024-02-13T09:43:11.466Z,431.00
2024-02-13T09:44:11.465Z,433.00
2024-02-13T09:45:11.466Z,433.00
2024-02-13T09:46:11.482Z,433.00
2024-02-13T09:47:11.488Z,432.00
2024-02-13T09:48:11.633Z,431.00
2024-02-13T09:49:11.558Z,430.00
2024-02-13T09:50:11.477Z,429.00
2024-02-13T09:51:11.542Z,432.00
2024-02-13T09:52:11.560Z,434.00
2024-02-13T09:53:11.579Z,435.00
2024-02-13T09:54:11.691Z,435.00
2024-02-13T09:55:11.733Z,437.00
2024-02-13T09:56:11.773Z,438.00
2024-02-13T09:57:11.856Z,437.00
2024-02-13T09:58:11.918Z,439.00
2024-02-13T09:59:11.982Z,441.00
2024-02-13T10:00:12.019Z,442.00
2024-02-13T10:01:12.143Z,442.00
2024-02-13T10:02:12.124Z,441.00
2024-02-13T10:03:12.279Z,440.00
2024-02-13T10:04:12.361Z,441.00
2024-02-13T10:05:12.339Z,441.00
2024-02-13T10:06:12.687Z,440.00
2024-02-13T10:07:12.483Z,442.00
2024-02-13T10:08:12.512Z,440.00
2024-02-13T10:09:12.594Z,439.00
2024-02-13T10:10:12.670Z,438.00
2024-02-13T10:11:12.996Z,439.00
2024-02-13T10:12:12.763Z,440.00
2024-02-13T10:13:12.814Z,441.00
2024-02-13T10:14:12.939Z,441.00
2024-02-13T10:15:12.932Z,441.00
2024-02-13T10:16:12.972Z,441.00
2024-02-13T10:17:13.081Z,442.00
2024-02-13T10:18:13.319Z,442.00
2024-02-13T10:19:13.149Z,441.00
2024-02-13T10:20:13.448Z,441.00
2024-02-13T10:21:13.255Z,443.00
2024-02-13T10:22:13.309Z,444.00
2024-02-13T10:23:13.453Z,445.00
2024-02-13T10:24:13.613Z,444.00
2024-02-13T10:25:13.492Z,443.00
2024-02-13T10:26:13.555Z,443.00
2024-02-13T10:27:13.669Z,442.00
2024-02-13T10:28:13.657Z,444.00
2024-02-13T10:29:13.769Z,442.00
2024-02-13T10:30:13.724Z,441.00
2024-02-13T10:31:13.947Z,440.00
2024-02-13T10:32:13.876Z,441.00
2024-02-13T10:33:14.004Z,443.00
2024-02-13T10:34:13.955Z,441.00
2024-02-13T10:35:14.069Z,442.00
2024-02-13T10:36:14.070Z,443.00
2024-02-13T10:37:16.462Z,443.00
2024-02-13T10:38:14.110Z,444.00
2024-02-13T10:39:14.093Z,446.00
2024-02-13T10:40:14.064Z,444.00
2024-02-13T10:41:14.062Z,441.00
2024-02-13T10:42:14.084Z,439.00
2024-02-13T10:43:14.074Z,439.00
2024-02-13T10:44:14.129Z,440.00
2024-02-13T10:45:14.061Z,440.00
2024-02-13T10:46:14.074Z,438.00
2024-02-13T10:47:14.150Z,439.00
2024-02-13T10:48:14.191Z,437.00
2024-02-13T10:49:14.100Z,434.00
2024-02-13T10:50:14.190Z,433.00
2024-02-13T10:51:14.078Z,433.00
2024-02-13T10:52:14.063Z,432.00
2024-02-13T10:53:14.114Z,433.00
2024-02-13T10:54:14.083Z,433.00
2024-02-13T10:55:14.109Z,434.00
2024-02-13T10:56:14.110Z,434.00
2024-02-13T10:57:14.166Z,435.00
2024-02-13T10:58:21.259Z,436.00
2024-02-13T10:59:15.172Z,437.00
2024-02-13T11:00:14.122Z,437.00
2024-02-13T11:01:14.261Z,437.00
2024-02-13T11:02:14.219Z,438.00
2024-02-13T11:03:14.262Z,437.00
2024-02-13T11:04:14.162Z,437.00
2024-02-13T11:05:14.310Z,436.00
2024-02-13T11:06:14.366Z,438.00
2024-02-13T11:07:14.167Z,439.00
2024-02-13T11:08:14.150Z,438.00
2024-02-13T11:09:14.348Z,438.00
2024-02-13T11:10:14.152Z,439.00
2024-02-13T11:11:14.177Z,439.00
2024-02-13T11:12:15.067Z,440.00
2024-02-13T11:13:14.108Z,439.00
2024-02-13T11:14:14.135Z,439.00
2024-02-13T11:15:14.219Z,438.00
2024-02-13T11:16:14.107Z,438.00
2024-02-13T11:17:14.386Z,438.00
2024-02-13T11:18:14.376Z,438.00
2024-02-13T11:19:14.247Z,440.00
2024-02-13T11:20:14.360Z,443.00
2024-02-13T11:21:14.335Z,443.00
2024-02-13T11:22:14.305Z,444.00
2024-02-13T11:23:14.535Z,444.00
2024-02-13T11:24:14.393Z,445.00
2024-02-13T11:25:14.387Z,445.00
2024-02-13T11:26:14.548Z,442.00
2024-02-13T11:27:24.027Z,440.00
2024-02-13T11:28:15.545Z,438.00
2024-02-13T11:29:14.653Z,436.00
2024-02-13T11:30:14.525Z,435.00
2024-02-13T11:31:14.483Z,433.00
2024-02-13T11:32:14.532Z,434.00
2024-02-13T11:33:14.621Z,433.00
2024-02-13T11:34:15.068Z,435.00
2024-02-13T11:35:14.646Z,436.00
2024-02-13T11:36:14.579Z,437.00
2024-02-13T11:37:14.485Z,438.00
2024-02-13T11:38:14.507Z,439.00
2024-02-13T11:39:14.488Z,439.00
2024-02-13T11:40:14.928Z,439.00
2024-02-13T11:41:14.520Z,439.00
2024-02-13T11:42:14.519Z,439.00
2024-02-13T11:43:14.531Z,440.00
2024-02-13T11:44:14.573Z,442.00
2024-02-13T11:45:14.544Z,442.00
2024-02-13T11:46:14.591Z,442.00
2024-02-13T11:47:14.639Z,443.00
2024-02-13T11:48:14.795Z,443.00
2024-02-13T11:49:14.857Z,444.00
2024-02-13T11:50:14.938Z,443.00
2024-02-13T11:51:14.752Z,442.00
2024-02-13T11:52:14.803Z,442.00
2024-02-13T11:53:14.815Z,445.00
2024-02-13T11:54:14.853Z,446.00
2024-02-13T11:55:14.851Z,445.00
2024-02-13T11:56:14.966Z,444.00
2024-02-13T11:57:14.916Z,443.00
2024-02-13T11:58:14.948Z,440.00
2024-02-13T11:59:15.014Z,440.00
2024-02-13T12:00:15.065Z,439.00
2024-02-13T12:01:15.242Z,440.00
2024-02-13T12:02:15.205Z,440.00
2024-02-13T12:03:15.077Z,440.00
2024-02-13T12:04:15.160Z,438.00
2024-02-13T12:05:15.221Z,438.00
2024-02-13T12:06:15.211Z,438.00
2024-02-13T12:07:15.222Z,438.00
2024-02-13T12:08:15.275Z,436.00
2024-02-13T12:09:15.273Z,439.00
2024-02-13T12:10:15.293Z,438.00
2024-02-13T12:11:15.322Z,437.00
2024-02-13T12:12:15.316Z,436.00
2024-02-13T12:13:15.344Z,435.00
2024-02-13T12:14:15.421Z,437.00
2024-02-13T12:15:15.439Z,438.00
2024-02-13T12:16:15.476Z,438.00
2024-02-13T12:17:15.459Z,436.00
2024-02-13T12:18:15.529Z,437.00
2024-02-13T12:19:15.528Z,438.00
2024-02-13T12:20:15.576Z,438.00
2024-02-13T12:21:15.512Z,439.00
2024-02-13T12:22:15.553Z,439.00
2024-02-13T12:23:15.721Z,439.00
2024-02-13T12:24:15.650Z,438.00
2024-02-13T12:25:15.650Z,440.00
2024-02-13T12:26:15.673Z,440.00
2024-02-13T12:27:15.660Z,439.00
2024-02-13T12:28:15.649Z,441.00
2024-02-13T12:29:15.774Z,440.00